sensor_id;sensor_type;location;lat;lon;timestamp;pressure;altitude;pressure_sealevel;temperature;humidity
76819;BME280;65772;51.096;17.006;2023-08-07T00:01:20;98921.91;;;16.66;72.18
76819;BME280;65772;51.096;17.006;2023-08-07T00:03:50;98922.25;;;16.66;72.31
76819;BME280;65772;51.096;17.006;2023-08-07T00:06:21;98924.52;;;16.65;72.25
76819;BME280;65772;51.096;17.006;2023-08-07T00:08:52;98927.98;;;16.64;72.24
76819;BME280;65772;51.096;17.006;2023-08-07T00:11:22;98929.70;;;16.64;72.13
76819;BME280;65772;51.096;17.006;2023-08-07T00:13:53;98930.05;;;16.64;72.04
76819;BME280;65772;51.096;17.006;2023-08-07T00:16:23;98929.72;;;16.63;72.06
76819;BME280;65772;51.096;17.006;2023-08-07T00:18:54;98933.02;;;16.62;71.95
76819;BME280;65772;51.096;17.006;2023-08-07T00:21:25;98935.78;;;16.61;72.03
76819;BME280;65772;51.096;17.006;2023-08-07T00:23:56;98930.80;;;16.60;71.98
76819;BME280;65772;51.096;17.006;2023-08-07T00:26:26;98929.77;;;16.60;71.95
76819;BME280;65772;51.096;17.006;2023-08-07T00:28:57;98935.95;;;16.61;71.72
76819;BME280;65772;51.096;17.006;2023-08-07T00:31:27;98940.95;;;16.62;71.87
76819;BME280;65772;51.096;17.006;2023-08-07T00:34:00;98946.64;;;16.62;71.74
76819;BME280;65772;51.096;17.006;2023-08-07T00:36:33;98948.70;;;16.61;71.65
76819;BME280;65772;51.096;17.006;2023-08-07T00:39:04;98951.64;;;16.61;71.77
76819;BME280;65772;51.096;17.006;2023-08-07T00:41:35;98949.92;;;16.60;71.60
76819;BME280;65772;51.096;17.006;2023-08-07T00:44:05;98947.69;;;16.60;71.62
76819;BME280;65772;51.096;17.006;2023-08-07T00:46:36;98942.36;;;16.59;71.65
76819;BME280;65772;51.096;17.006;2023-08-07T00:49:09;98941.48;;;16.59;71.56
76819;BME280;65772;51.096;17.006;2023-08-07T00:51:41;98938.56;;;16.59;71.56
76819;BME280;65772;51.096;17.006;2023-08-07T00:54:14;98937.55;;;16.58;71.58
76819;BME280;65772;51.096;17.006;2023-08-07T00:56:46;98934.95;;;16.59;71.62
76819;BME280;65772;51.096;17.006;2023-08-07T00:59:17;98930.30;;;16.58;71.62
76819;BME280;65772;51.096;17.006;2023-08-07T01:01:49;98929.61;;;16.59;71.59
76819;BME280;65772;51.096;17.006;2023-08-07T01:04:19;98926.16;;;16.59;71.66
76819;BME280;65772;51.096;17.006;2023-08-07T01:06:50;98922.52;;;16.62;71.81
76819;BME280;65772;51.096;17.006;2023-08-07T01:09:20;98921.48;;;16.62;71.55
76819;BME280;65772;51.096;17.006;2023-08-07T01:11:55;98923.34;;;16.63;71.62
76819;BME280;65772;51.096;17.006;2023-08-07T01:14:31;98923.34;;;16.63;71.58
76819;BME280;65772;51.096;17.006;2023-08-07T01:17:07;98926.45;;;16.63;71.56
76819;BME280;65772;51.096;17.006;2023-08-07T01:19:40;98923.86;;;16.63;71.63
76819;BME280;65772;51.096;17.006;2023-08-07T01:22:15;98923.20;;;16.62;71.58
76819;BME280;65772;51.096;17.006;2023-08-07T01:24:47;98925.44;;;16.63;71.50
76819;BME280;65772;51.096;17.006;2023-08-07T01:27:30;98920.91;;;16.64;71.41
76819;BME280;65772;51.096;17.006;2023-08-07T01:30:09;98916.79;;;16.63;71.29
76819;BME280;65772;51.096;17.006;2023-08-07T01:32:49;98917.83;;;16.63;71.43
76819;BME280;65772;51.096;17.006;2023-08-07T01:35:29;98919.24;;;16.61;71.45
76819;BME280;65772;51.096;17.006;2023-08-07T01:38:00;98919.09;;;16.59;71.58
76819;BME280;65772;51.096;17.006;2023-08-07T01:40:30;98924.48;;;16.56;71.54
76819;BME280;65772;51.096;17.006;2023-08-07T01:43:01;98922.83;;;16.53;71.63
76819;BME280;65772;51.096;17.006;2023-08-07T01:45:32;98925.62;;;16.51;71.76
76819;BME280;65772;51.096;17.006;2023-08-07T01:48:03;98929.57;;;16.52;71.84
76819;BME280;65772;51.096;17.006;2023-08-07T01:50:33;98926.63;;;16.53;71.68
76819;BME280;65772;51.096;17.006;2023-08-07T01:53:05;98920.77;;;16.53;71.73
76819;BME280;65772;51.096;17.006;2023-08-07T01:55:35;98917.68;;;16.52;71.74
76819;BME280;65772;51.096;17.006;2023-08-07T01:58:06;98914.07;;;16.52;71.73
76819;BME280;65772;51.096;17.006;2023-08-07T02:00:37;98921.48;;;16.52;71.89
76819;BME280;65772;51.096;17.006;2023-08-07T02:03:10;98923.88;;;16.52;71.83
76819;BME280;65772;51.096;17.006;2023-08-07T02:05:40;98921.62;;;16.53;71.71
76819;BME280;65772;51.096;17.006;2023-08-07T02:08:11;98919.17;;;16.54;71.66
76819;BME280;65772;51.096;17.006;2023-08-07T02:10:42;98923.14;;;16.54;71.78
76819;BME280;65772;51.096;17.006;2023-08-07T02:13:13;98922.78;;;16.54;71.64
76819;BME280;65772;51.096;17.006;2023-08-07T02:15:44;98924.16;;;16.54;71.79
76819;BME280;65772;51.096;17.006;2023-08-07T02:18:14;98924.34;;;16.54;71.82
76819;BME280;65772;51.096;17.006;2023-08-07T02:20:45;98924.87;;;16.54;71.88
76819;BME280;65772;51.096;17.006;2023-08-07T02:23:16;98923.45;;;16.55;71.84
76819;BME280;65772;51.096;17.006;2023-08-07T02:25:47;98924.30;;;16.56;71.84
76819;BME280;65772;51.096;17.006;2023-08-07T02:28:18;98923.44;;;16.56;71.64
76819;BME280;65772;51.096;17.006;2023-08-07T02:30:49;98922.56;;;16.57;71.78
76819;BME280;65772;51.096;17.006;2023-08-07T02:33:21;98917.73;;;16.58;71.82
76819;BME280;65772;51.096;17.006;2023-08-07T02:35:51;98920.32;;;16.58;71.67
76819;BME280;65772;51.096;17.006;2023-08-07T02:38:22;98921.54;;;16.57;71.53
76819;BME280;65772;51.096;17.006;2023-08-07T02:40:53;98921.55;;;16.56;71.55
76819;BME280;65772;51.096;17.006;2023-08-07T02:43:23;98923.41;;;16.58;71.60
76819;BME280;65772;51.096;17.006;2023-08-07T02:45:55;98922.70;;;16.60;71.61
76819;BME280;65772;51.096;17.006;2023-08-07T02:48:27;98921.48;;;16.60;71.67
76819;BME280;65772;51.096;17.006;2023-08-07T02:50:57;98919.08;;;16.60;71.63
76819;BME280;65772;51.096;17.006;2023-08-07T02:53:28;98920.79;;;16.61;71.75
76819;BME280;65772;51.096;17.006;2023-08-07T02:55:58;98923.39;;;16.62;71.75
76819;BME280;65772;51.096;17.006;2023-08-07T02:58:29;98924.92;;;16.62;71.70
76819;BME280;65772;51.096;17.006;2023-08-07T03:01:04;98924.07;;;16.62;71.85
76819;BME280;65772;51.096;17.006;2023-08-07T03:03:36;98924.70;;;16.64;71.89
76819;BME280;65772;51.096;17.006;2023-08-07T03:06:06;98926.39;;;16.66;71.89
76819;BME280;65772;51.096;17.006;2023-08-07T03:08:37;98929.32;;;16.66;71.94
76819;BME280;65772;51.096;17.006;2023-08-07T03:11:07;98927.93;;;16.67;71.95
76819;BME280;65772;51.096;17.006;2023-08-07T03:13:38;98931.04;;;16.67;71.82
76819;BME280;65772;51.096;17.006;2023-08-07T03:16:09;98932.25;;;16.67;72.00
76819;BME280;65772;51.096;17.006;2023-08-07T03:18:39;98935.86;;;16.67;72.15
76819;BME280;65772;51.096;17.006;2023-08-07T03:21:10;98934.11;;;16.69;72.14
76819;BME280;65772;51.096;17.006;2023-08-07T03:23:41;98940.14;;;16.69;72.04
76819;BME280;65772;51.096;17.006;2023-08-07T03:26:13;98944.96;;;16.69;72.12
76819;BME280;65772;51.096;17.006;2023-08-07T03:28:49;98941.84;;;16.70;72.18
76819;BME280;65772;51.096;17.006;2023-08-07T03:31:20;98939.77;;;16.70;72.23
76819;BME280;65772;51.096;17.006;2023-08-07T03:33:51;98942.36;;;16.70;72.34
76819;BME280;65772;51.096;17.006;2023-08-07T03:36:21;98946.65;;;16.71;72.29
76819;BME280;65772;51.096;17.006;2023-08-07T03:38:53;98953.20;;;16.72;72.41
76819;BME280;65772;51.096;17.006;2023-08-07T03:41:23;98955.55;;;16.74;72.44
76819;BME280;65772;51.096;17.006;2023-08-07T03:43:54;98958.62;;;16.75;72.55
76819;BME280;65772;51.096;17.006;2023-08-07T03:46:25;98958.95;;;16.77;72.48
76819;BME280;65772;51.096;17.006;2023-08-07T03:48:56;98960.84;;;16.77;72.66
76819;BME280;65772;51.096;17.006;2023-08-07T03:51:26;98963.58;;;16.78;72.75
76819;BME280;65772;51.096;17.006;2023-08-07T03:53:57;98963.92;;;16.78;72.69
76819;BME280;65772;51.096;17.006;2023-08-07T03:56:28;98966.33;;;16.78;72.76
76819;BME280;65772;51.096;17.006;2023-08-07T03:59:01;98977.50;;;16.80;72.65
76819;BME280;65772;51.096;17.006;2023-08-07T04:01:32;98976.44;;;16.82;72.97
76819;BME280;65772;51.096;17.006;2023-08-07T04:04:03;98981.06;;;16.84;73.13
76819;BME280;65772;51.096;17.006;2023-08-07T04:06:34;98981.35;;;16.86;73.07
76819;BME280;65772;51.096;17.006;2023-08-07T04:09:05;98981.16;;;16.87;73.19
76819;BME280;65772;51.096;17.006;2023-08-07T04:11:35;98984.61;;;16.87;73.35
76819;BME280;65772;51.096;17.006;2023-08-07T04:14:06;98981.50;;;16.88;73.39
76819;BME280;65772;51.096;17.006;2023-08-07T04:16:36;98983.54;;;16.90;73.24
76819;BME280;65772;51.096;17.006;2023-08-07T04:19:07;98980.61;;;16.90;73.37
76819;BME280;65772;51.096;17.006;2023-08-07T04:21:37;98985.96;;;16.89;73.45
76819;BME280;65772;51.096;17.006;2023-08-07T04:28:54;98992.35;;;16.88;73.61
76819;BME280;65772;51.096;17.006;2023-08-07T04:31:24;99000.10;;;16.88;73.65
76819;BME280;65772;51.096;17.006;2023-08-07T04:33:55;98996.83;;;16.89;73.67
76819;BME280;65772;51.096;17.006;2023-08-07T04:36:26;99005.96;;;16.89;73.75
76819;BME280;65772;51.096;17.006;2023-08-07T04:38:56;99003.73;;;16.88;73.75
76819;BME280;65772;51.096;17.006;2023-08-07T04:41:27;99003.73;;;16.88;73.83
76819;BME280;65772;51.096;17.006;2023-08-07T04:43:57;98995.66;;;16.86;74.05
76819;BME280;65772;51.096;17.006;2023-08-07T04:46:28;98997.27;;;16.83;73.79
76819;BME280;65772;51.096;17.006;2023-08-07T04:48:58;98994.36;;;16.82;73.72
76819;BME280;65772;51.096;17.006;2023-08-07T04:51:30;98996.94;;;16.83;73.82
76819;BME280;65772;51.096;17.006;2023-08-07T04:54:00;98995.05;;;16.83;73.89
76819;BME280;65772;51.096;17.006;2023-08-07T04:56:31;98990.91;;;16.83;73.73
76819;BME280;65772;51.096;17.006;2023-08-07T04:59:02;98988.66;;;16.83;73.91
76819;BME280;65772;51.096;17.006;2023-08-07T05:01:32;98990.05;;;16.83;73.94
76819;BME280;65772;51.096;17.006;2023-08-07T05:04:03;99005.05;;;16.82;73.83
76819;BME280;65772;51.096;17.006;2023-08-07T05:06:34;99010.50;;;16.85;74.03
76819;BME280;65772;51.096;17.006;2023-08-07T05:09:05;99019.77;;;16.88;73.78
76819;BME280;65772;51.096;17.006;2023-08-07T05:11:36;99024.90;;;16.90;73.66
76819;BME280;65772;51.096;17.006;2023-08-07T05:14:06;99022.65;;;16.91;73.61
76819;BME280;65772;51.096;17.006;2023-08-07T05:16:37;99018.52;;;16.90;73.55
76819;BME280;65772;51.096;17.006;2023-08-07T05:19:07;99018.56;;;16.88;73.53
76819;BME280;65772;51.096;17.006;2023-08-07T05:21:38;99019.64;;;16.86;73.30
76819;BME280;65772;51.096;17.006;2023-08-07T05:24:08;99018.98;;;16.83;73.35
76819;BME280;65772;51.096;17.006;2023-08-07T05:26:39;99016.27;;;16.81;73.49
76819;BME280;65772;51.096;17.006;2023-08-07T05:29:10;99021.12;;;16.79;73.56
76819;BME280;65772;51.096;17.006;2023-08-07T05:35:42;99021.33;;;16.77;73.92
76819;BME280;65772;51.096;17.006;2023-08-07T05:38:12;99026.14;;;16.78;73.84
76819;BME280;65772;51.096;17.006;2023-08-07T05:40:43;99024.91;;;16.79;73.77
76819;BME280;65772;51.096;17.006;2023-08-07T05:43:13;99026.10;;;16.81;73.65
76819;BME280;65772;51.096;17.006;2023-08-07T05:45:45;99027.31;;;16.81;73.66
76819;BME280;65772;51.096;17.006;2023-08-07T05:48:18;99031.43;;;16.82;73.76
76819;BME280;65772;51.096;17.006;2023-08-07T05:50:49;99030.55;;;16.83;73.92
76819;BME280;65772;51.096;17.006;2023-08-07T05:53:21;99033.64;;;16.83;73.59
76819;BME280;65772;51.096;17.006;2023-08-07T05:55:52;99030.90;;;16.83;73.64
76819;BME280;65772;51.096;17.006;2023-08-07T05:58:23;99032.28;;;16.82;73.48
76819;BME280;65772;51.096;17.006;2023-08-07T06:00:53;99035.40;;;16.82;73.30
76819;BME280;65772;51.096;17.006;2023-08-07T06:03:24;99042.29;;;16.81;73.32
76819;BME280;65772;51.096;17.006;2023-08-07T06:05:54;99044.19;;;16.82;73.60
76819;BME280;65772;51.096;17.006;2023-08-07T06:08:25;99048.32;;;16.82;73.66
76819;BME280;65772;51.096;17.006;2023-08-07T06:10:55;99053.30;;;16.82;73.53
76819;BME280;65772;51.096;17.006;2023-08-07T06:13:26;99058.14;;;16.83;73.70
76819;BME280;65772;51.096;17.006;2023-08-07T06:16:05;99060.84;;;16.84;73.69
76819;BME280;65772;51.096;17.006;2023-08-07T06:18:35;99061.85;;;16.86;73.67
76819;BME280;65772;51.096;17.006;2023-08-07T06:21:06;99065.15;;;16.84;73.58
76819;BME280;65772;51.096;17.006;2023-08-07T06:23:37;99069.33;;;16.83;73.52
76819;BME280;65772;51.096;17.006;2023-08-07T06:26:08;99074.86;;;16.82;73.58
76819;BME280;65772;51.096;17.006;2023-08-07T06:28:38;99077.46;;;16.80;73.72
76819;BME280;65772;51.096;17.006;2023-08-07T06:31:10;99074.18;;;16.81;73.72
76819;BME280;65772;51.096;17.006;2023-08-07T06:33:41;99082.10;;;16.82;73.63
76819;BME280;65772;51.096;17.006;2023-08-07T06:36:11;99086.22;;;16.83;73.65
76819;BME280;65772;51.096;17.006;2023-08-07T06:38:42;99086.49;;;16.86;73.73
76819;BME280;65772;51.096;17.006;2023-08-07T06:41:13;99087.52;;;16.87;73.37
76819;BME280;65772;51.096;17.006;2023-08-07T06:43:44;99086.81;;;16.88;73.36
76819;BME280;65772;51.096;17.006;2023-08-07T06:46:14;99089.89;;;16.90;73.57
76819;BME280;65772;51.096;17.006;2023-08-07T06:48:45;99089.70;;;16.91;73.54
76819;BME280;65772;51.096;17.006;2023-08-07T06:51:15;99093.66;;;16.93;73.31
76819;BME280;65772;51.096;17.006;2023-08-07T06:53:46;99094.50;;;16.94;72.96
76819;BME280;65772;51.096;17.006;2023-08-07T06:56:16;99099.45;;;16.95;72.95
76819;BME280;65772;51.096;17.006;2023-08-07T06:58:47;99098.91;;;16.97;72.76
76819;BME280;65772;51.096;17.006;2023-08-07T07:01:18;99106.49;;;16.96;72.69
76819;BME280;65772;51.096;17.006;2023-08-07T07:03:48;99107.70;;;16.98;72.82
76819;BME280;65772;51.096;17.006;2023-08-07T07:06:22;99112.67;;;16.98;72.91
76819;BME280;65772;51.096;17.006;2023-08-07T07:08:54;99110.41;;;17.00;72.94
76819;BME280;65772;51.096;17.006;2023-08-07T07:11:25;99115.39;;;17.02;73.05
76819;BME280;65772;51.096;17.006;2023-08-07T07:13:56;99116.05;;;17.04;73.03
76819;BME280;65772;51.096;17.006;2023-08-07T07:16:26;99124.30;;;17.05;72.86
76819;BME280;65772;51.096;17.006;2023-08-07T07:18:59;99122.37;;;17.06;72.47
76819;BME280;65772;51.096;17.006;2023-08-07T07:21:30;99127.23;;;17.05;72.30
76819;BME280;65772;51.096;17.006;2023-08-07T07:24:00;99127.19;;;17.06;72.32
76819;BME280;65772;51.096;17.006;2023-08-07T07:26:31;99128.76;;;17.06;72.43
76819;BME280;65772;51.096;17.006;2023-08-07T07:29:02;99131.84;;;17.07;72.54
76819;BME280;65772;51.096;17.006;2023-08-07T07:31:32;99130.80;;;17.08;72.62
76819;BME280;65772;51.096;17.006;2023-08-07T07:34:03;99126.42;;;17.11;72.58
76819;BME280;65772;51.096;17.006;2023-08-07T07:36:33;99123.97;;;17.15;72.63
76819;BME280;65772;51.096;17.006;2023-08-07T07:39:04;99127.36;;;17.17;72.75
76819;BME280;65772;51.096;17.006;2023-08-07T07:41:34;99128.18;;;17.20;72.90
76819;BME280;65772;51.096;17.006;2023-08-07T07:44:05;99126.27;;;17.21;72.87
76819;BME280;65772;51.096;17.006;2023-08-07T07:46:35;99132.45;;;17.23;72.80
76819;BME280;65772;51.096;17.006;2023-08-07T07:49:06;99133.95;;;17.26;72.94
76819;BME280;65772;51.096;17.006;2023-08-07T07:51:36;99136.62;;;17.31;72.89
76819;BME280;65772;51.096;17.006;2023-08-07T07:54:07;99140.02;;;17.34;72.87
76819;BME280;65772;51.096;17.006;2023-08-07T07:56:43;99143.39;;;17.38;72.74
76819;BME280;65772;51.096;17.006;2023-08-07T07:59:14;99138.00;;;17.40;72.77
76819;BME280;65772;51.096;17.006;2023-08-07T08:01:45;99140.73;;;17.41;72.77
76819;BME280;65772;51.096;17.006;2023-08-07T08:04:15;99141.03;;;17.45;72.80
76819;BME280;65772;51.096;17.006;2023-08-07T08:06:47;99139.05;;;17.49;72.65
76819;BME280;65772;51.096;17.006;2023-08-07T08:09:18;99146.21;;;17.54;72.49
76819;BME280;65772;51.096;17.006;2023-08-07T08:11:48;99145.77;;;17.59;72.32
76819;BME280;65772;51.096;17.006;2023-08-07T08:14:19;99149.34;;;17.64;72.04
76819;BME280;65772;51.096;17.006;2023-08-07T08:16:50;99154.86;;;17.64;71.51
76819;BME280;65772;51.096;17.006;2023-08-07T08:19:20;99148.11;;;17.65;71.26
76819;BME280;65772;51.096;17.006;2023-08-07T08:21:51;99154.50;;;17.66;70.65
76819;BME280;65772;51.096;17.006;2023-08-07T08:24:21;99153.83;;;17.64;70.02
76819;BME280;65772;51.096;17.006;2023-08-07T08:26:51;99152.45;;;17.62;69.92
76819;BME280;65772;51.096;17.006;2023-08-07T08:29:23;99159.02;;;17.64;70.06
76819;BME280;65772;51.096;17.006;2023-08-07T08:31:53;99153.33;;;17.63;69.94
76819;BME280;65772;51.096;17.006;2023-08-07T08:34:25;99160.39;;;17.61;69.58
76819;BME280;65772;51.096;17.006;2023-08-07T08:36:55;99160.59;;;17.60;69.36
76819;BME280;65772;51.096;17.006;2023-08-07T08:39:26;99162.49;;;17.60;69.45
76819;BME280;65772;51.096;17.006;2023-08-07T08:41:57;99168.01;;;17.60;69.57
76819;BME280;65772;51.096;17.006;2023-08-07T08:44:30;99168.17;;;17.61;69.89
76819;BME280;65772;51.096;17.006;2023-08-07T08:47:02;99166.92;;;17.66;70.19
76819;BME280;65772;51.096;17.006;2023-08-07T08:49:35;99172.86;;;17.70;70.25
76819;BME280;65772;51.096;17.006;2023-08-07T08:52:07;99176.11;;;17.72;69.77
76819;BME280;65772;51.096;17.006;2023-08-07T08:54:38;99177.12;;;17.74;69.74
76819;BME280;65772;51.096;17.006;2023-08-07T08:57:09;99178.30;;;17.75;69.72
76819;BME280;65772;51.096;17.006;2023-08-07T08:59:39;99180.88;;;17.76;69.36
76819;BME280;65772;51.096;17.006;2023-08-07T09:02:10;99185.19;;;17.76;68.91
76819;BME280;65772;51.096;17.006;2023-08-07T09:04:41;99188.68;;;17.74;68.06
76819;BME280;65772;51.096;17.006;2023-08-07T09:07:14;99189.73;;;17.73;68.31
76819;BME280;65772;51.096;17.006;2023-08-07T09:09:45;99190.42;;;17.73;68.19
76819;BME280;65772;51.096;17.006;2023-08-07T09:12:19;99190.05;;;17.74;67.67
76819;BME280;65772;51.096;17.006;2023-08-07T09:14:52;99186.77;;;17.74;67.73
76819;BME280;65772;51.096;17.006;2023-08-07T09:17:28;99185.20;;;17.76;67.88
76819;BME280;65772;51.096;17.006;2023-08-07T09:19:59;99184.64;;;17.78;67.79
76819;BME280;65772;51.096;17.006;2023-08-07T09:22:30;99184.91;;;17.81;67.84
76819;BME280;65772;51.096;17.006;2023-08-07T09:25:00;99188.86;;;17.83;67.62
76819;BME280;65772;51.096;17.006;2023-08-07T09:27:31;99195.05;;;17.84;67.71
76819;BME280;65772;51.096;17.006;2023-08-07T09:30:04;99198.59;;;17.89;67.92
76819;BME280;65772;51.096;17.006;2023-08-07T09:32:36;99194.69;;;17.94;67.68
76819;BME280;65772;51.096;17.006;2023-08-07T09:35:09;99197.36;;;17.99;67.84
76819;BME280;65772;51.096;17.006;2023-08-07T09:37:41;99200.36;;;18.04;67.24
76819;BME280;65772;51.096;17.006;2023-08-07T09:40:13;99202.23;;;18.06;66.45
76819;BME280;65772;51.096;17.006;2023-08-07T09:42:45;99208.98;;;18.05;65.16
76819;BME280;65772;51.096;17.006;2023-08-07T09:45:25;99209.83;;;18.06;64.49
76819;BME280;65772;51.096;17.006;2023-08-07T09:48:03;99201.86;;;18.08;63.88
76819;BME280;65772;51.096;17.006;2023-08-07T09:50:35;99202.13;;;18.12;63.56
76819;BME280;65772;51.096;17.006;2023-08-07T09:53:06;99201.89;;;18.14;63.47
76819;BME280;65772;51.096;17.006;2023-08-07T09:55:37;99208.08;;;18.16;63.16
76819;BME280;65772;51.096;17.006;2023-08-07T09:58:09;99210.96;;;18.19;62.21
76819;BME280;65772;51.096;17.006;2023-08-07T10:00:42;99213.07;;;18.25;61.26
76819;BME280;65772;51.096;17.006;2023-08-07T10:03:13;99213.71;;;18.28;61.10
76819;BME280;65772;51.096;17.006;2023-08-07T10:05:46;99219.89;;;18.31;61.06
76819;BME280;65772;51.096;17.006;2023-08-07T10:08:17;99224.49;;;18.34;60.74
76819;BME280;65772;51.096;17.006;2023-08-07T10:10:48;99224.63;;;18.35;61.11
76819;BME280;65772;51.096;17.006;2023-08-07T10:13:19;99223.94;;;18.35;60.83
76819;BME280;65772;51.096;17.006;2023-08-07T10:16:02;99230.50;;;18.35;60.86
76819;BME280;65772;51.096;17.006;2023-08-07T10:18:33;99224.77;;;18.36;60.97
76819;BME280;65772;51.096;17.006;2023-08-07T10:21:06;99227.20;;;18.36;60.99
76819;BME280;65772;51.096;17.006;2023-08-07T10:23:37;99227.73;;;18.35;60.83
76819;BME280;65772;51.096;17.006;2023-08-07T10:26:10;99226.00;;;18.35;60.64
76819;BME280;65772;51.096;17.006;2023-08-07T10:28:41;99231.52;;;18.37;60.06
76819;BME280;65772;51.096;17.006;2023-08-07T10:31:14;99219.52;;;18.40;58.77
76819;BME280;65772;51.096;17.006;2023-08-07T10:33:45;99225.88;;;18.42;58.90
76819;BME280;65772;51.096;17.006;2023-08-07T10:36:17;99222.48;;;18.46;59.37
76819;BME280;65772;51.096;17.006;2023-08-07T10:38:52;99227.23;;;18.52;59.48
76819;BME280;65772;51.096;17.006;2023-08-07T10:41:41;99224.70;;;18.56;59.16
76819;BME280;65772;51.096;17.006;2023-08-07T10:44:22;99221.56;;;18.59;59.15
76819;BME280;65772;51.096;17.006;2023-08-07T10:46:54;99219.88;;;18.65;58.92
76819;BME280;65772;51.096;17.006;2023-08-07T10:49:36;99212.86;;;18.70;58.43
76819;BME280;65772;51.096;17.006;2023-08-07T10:52:11;99220.70;;;18.75;58.06
76819;BME280;65772;51.096;17.006;2023-08-07T10:54:46;99219.91;;;18.79;58.07
76819;BME280;65772;51.096;17.006;2023-08-07T10:57:18;99217.61;;;18.82;57.84
76819;BME280;65772;51.096;17.006;2023-08-07T10:59:56;99217.74;;;18.84;58.68
76819;BME280;65772;51.096;17.006;2023-08-07T11:02:35;99215.98;;;18.85;57.26
76819;BME280;65772;51.096;17.006;2023-08-07T11:05:09;99212.20;;;18.85;57.06
76819;BME280;65772;51.096;17.006;2023-08-07T11:07:41;99214.98;;;18.83;56.99
76819;BME280;65772;51.096;17.006;2023-08-07T11:10:15;99218.13;;;18.82;57.18
76819;BME280;65772;51.096;17.006;2023-08-07T11:12:46;99219.88;;;18.81;57.68
76819;BME280;65772;51.096;17.006;2023-08-07T11:15:16;99216.80;;;18.79;57.69
76819;BME280;65772;51.096;17.006;2023-08-07T11:17:47;99219.45;;;18.77;57.27
76819;BME280;65772;51.096;17.006;2023-08-07T11:20:18;99217.66;;;18.72;56.50
76819;BME280;65772;51.096;17.006;2023-08-07T11:22:49;99224.47;;;18.69;57.00
76819;BME280;65772;51.096;17.006;2023-08-07T11:25:20;99226.42;;;18.66;57.83
76819;BME280;65772;51.096;17.006;2023-08-07T11:27:51;99223.38;;;18.63;58.13
76819;BME280;65772;51.096;17.006;2023-08-07T11:30:21;99223.06;;;18.62;58.67
76819;BME280;65772;51.096;17.006;2023-08-07T11:32:53;99228.98;;;18.60;58.86
76819;BME280;65772;51.096;17.006;2023-08-07T11:35:24;99235.05;;;18.59;59.05
76819;BME280;65772;51.096;17.006;2023-08-07T11:37:55;99240.08;;;18.58;59.13
76819;BME280;65772;51.096;17.006;2023-08-07T11:40:26;99236.09;;;18.59;58.80
76819;BME280;65772;51.096;17.006;2023-08-07T11:42:56;99232.05;;;18.62;58.72
76819;BME280;65772;51.096;17.006;2023-08-07T11:45:27;99237.15;;;18.66;58.64
76819;BME280;65772;51.096;17.006;2023-08-07T11:47:58;99236.20;;;18.70;58.61
76819;BME280;65772;51.096;17.006;2023-08-07T11:50:30;99239.92;;;18.74;58.19
76819;BME280;65772;51.096;17.006;2023-08-07T11:53:01;99241.73;;;18.78;58.35
76819;BME280;65772;51.096;17.006;2023-08-07T11:55:31;99249.77;;;18.82;58.43
76819;BME280;65772;51.096;17.006;2023-08-07T11:58:06;99249.71;;;18.85;58.42
76819;BME280;65772;51.096;17.006;2023-08-07T12:00:37;99250.48;;;18.88;58.75
76819;BME280;65772;51.096;17.006;2023-08-07T12:03:24;99256.11;;;18.92;58.52
76819;BME280;65772;51.096;17.006;2023-08-07T12:05:57;99261.02;;;18.97;58.30
76819;BME280;65772;51.096;17.006;2023-08-07T12:08:34;99268.43;;;18.98;57.60
76819;BME280;65772;51.096;17.006;2023-08-07T12:11:06;99273.80;;;18.97;57.54
76819;BME280;65772;51.096;17.006;2023-08-07T12:13:40;99279.23;;;18.95;58.17
76819;BME280;65772;51.096;17.006;2023-08-07T12:16:11;99284.70;;;18.90;58.75
76819;BME280;65772;51.096;17.006;2023-08-07T12:18:47;99278.11;;;18.83;58.84
76819;BME280;65772;51.096;17.006;2023-08-07T12:21:19;99281.62;;;18.73;59.26
76819;BME280;65772;51.096;17.006;2023-08-07T12:23:56;99292.55;;;18.62;59.76
76819;BME280;65772;51.096;17.006;2023-08-07T12:26:27;99301.61;;;18.57;60.17
76819;BME280;65772;51.096;17.006;2023-08-07T12:28:57;99302.56;;;18.53;60.51
76819;BME280;65772;51.096;17.006;2023-08-07T12:31:28;99303.23;;;18.54;60.98
76819;BME280;65772;51.096;17.006;2023-08-07T12:33:59;99306.33;;;18.54;61.11
76819;BME280;65772;51.096;17.006;2023-08-07T12:36:49;99306.44;;;18.58;61.34
76819;BME280;65772;51.096;17.006;2023-08-07T12:39:20;99311.04;;;18.63;61.42
76819;BME280;65772;51.096;17.006;2023-08-07T12:42:11;99318.21;;;18.66;61.38
76819;BME280;65772;51.096;17.006;2023-08-07T12:44:44;99321.81;;;18.69;61.28
76819;BME280;65772;51.096;17.006;2023-08-07T12:47:15;99321.45;;;18.69;61.15
76819;BME280;65772;51.096;17.006;2023-08-07T12:49:46;99315.79;;;18.76;61.10
76819;BME280;65772;51.096;17.006;2023-08-07T12:52:17;99312.69;;;18.84;61.02
76819;BME280;65772;51.096;17.006;2023-08-07T12:54:47;99315.87;;;18.88;60.26
76819;BME280;65772;51.096;17.006;2023-08-07T12:57:18;99319.98;;;18.90;59.55
76819;BME280;65772;51.096;17.006;2023-08-07T12:59:48;99322.88;;;18.92;59.14
76819;BME280;65772;51.096;17.006;2023-08-07T13:02:19;99330.77;;;18.95;59.51
76819;BME280;65772;51.096;17.006;2023-08-07T13:04:49;99337.11;;;18.97;59.23
76819;BME280;65772;51.096;17.006;2023-08-07T13:07:21;99334.20;;;18.97;58.58
76819;BME280;65772;51.096;17.006;2023-08-07T13:09:51;99344.48;;;18.93;58.67
76819;BME280;65772;51.096;17.006;2023-08-07T13:12:22;99343.66;;;18.91;59.29
76819;BME280;65772;51.096;17.006;2023-08-07T13:14:53;99352.50;;;18.90;59.43
76819;BME280;65772;51.096;17.006;2023-08-07T13:17:23;99352.16;;;18.89;60.04
76819;BME280;65772;51.096;17.006;2023-08-07T13:19:54;99355.63;;;18.89;60.96
76819;BME280;65772;51.096;17.006;2023-08-07T13:22:24;99356.45;;;18.91;61.64